Time;durP1;ratioP1;P1;durP2;ratioP2;P2;SDS_P1;SDS_P2;PMS_P1;PMS_P2;Temp;Humidity;BMP_temperature;BMP_pressure;BME280_temperature;BME280_humidity;BME280_pressure;Samples;Min_cycle;Max_cycle;Signal;HPM_P1;HPM_P2
2022/10/29 00:01:10;;;;;;;;;;;;;;;;;;;;;
2022/10/29 00:04:33;;;;;;;;;;;;;;;;;;;;;
2022/10/29 00:16:31;;;;;;;41.70;21.98;;;12.80;99.90;;;;;;4958117;29;20511;-88
2022/10/29 00:19:36;;;;;;;43.88;21.98;;;12.80;99.90;;;;;;4910229;29;20116;-87
2022/10/29 00:23:32;;;;;;;40.17;21.60;;;12.80;99.90;;;;;;4933130;29;20167;-87
2022/10/29 00:27:10;;;;;;;33.85;18.52;;;12.80;99.90;;;;;;4932245;29;20050;-86
2022/10/29 00:30:43;;;;;;;32.67;18.02;;;12.80;99.90;;;;;;4924335;29;20095;-89
2022/10/29 00:34:39;;;;;;;35.85;17.98;;;12.80;99.90;;;;;;4859427;29;20058;-88
2022/10/29 00:56:33;;;;;;;35.95;19.45;;;12.80;99.90;;;;;;4882414;29;20056;-88
2022/10/29 01:07:52;;;;;;;;;;;;;;;;;;;;;
2022/10/29 01:15:14;;;;;;;30.55;18.58;;;12.80;99.90;;;;;;4872549;29;20196;-87
2022/10/29 01:19:23;;;;;;;;;;;;;;;;;;;;;
2022/10/29 01:27:17;;;;;;;;;;;;;;;;;;;;;
2022/10/29 01:37:45;;;;;;;34.75;17.60;;;12.80;99.90;;;;;;4982485;28;20074;-89
2022/10/29 01:45:36;;;;;;;33.85;18.85;;;12.80;99.90;;;;;;4971559;28;20085;-88
2022/10/29 02:00:52;;;;;;;31.45;17.80;;;12.80;99.90;;;;;;4950595;29;20069;-88
2022/10/29 02:04:21;;;;;;;33.40;18.27;;;12.80;99.90;;;;;;4939688;29;20039;-84
2022/10/29 02:15:46;;;;;;;;;;;;;;;;;;;;;
2022/10/29 02:39:07;;;;;;;38.60;19.17;;;12.60;99.90;;;;;;4907670;28;20063;-87
2022/10/29 02:51:11;;;;;;;37.15;19.10;;;12.60;99.90;;;;;;4858889;29;20105;-88
2022/10/29 02:54:41;;;;;;;;;;;;;;;;;;;;;
2022/10/29 02:58:15;;;;;;;;;;;;;;;;;;;;;
2022/10/29 03:05:38;;;;;;;39.70;20.02;;;12.60;99.90;;;;;;4976195;29;20151;-88
2022/10/29 03:12:43;;;;;;;38.80;19.75;;;12.60;99.90;;;;;;4969217;29;20042;-87
2022/10/29 03:31:52;;;;;;;33.83;18.90;;;12.60;99.90;;;;;;5020074;28;20071;-87
2022/10/29 03:51:06;;;;;;;37.03;17.08;;;12.60;99.90;;;;;;5047064;23;20104;-88
2022/10/29 03:58:21;;;;;;;;;;;;;;;;;;;;;
2022/10/29 04:20:58;;;;;;;;;;;;;;;;;;;;;
2022/10/29 04:27:35;;;;;;;;;;;;;;;;;;;;;
2022/10/29 05:01:44;;;;;;;41.92;20.60;;;12.50;99.90;;;;;;4972032;29;20043;-86
2022/10/29 05:17:20;;;;;;;;;;;;;;;;;;;;;
2022/10/29 05:23:50;;;;;;;37.92;17.58;;;12.50;99.90;;;;;;4800778;29;20061;-85
2022/10/29 05:26:16;;;;;;;42.92;19.60;;;12.50;99.90;;;;;;5035921;28;20029;-84
2022/10/29 05:28:42;;;;;;;43.92;20.88;;;12.50;99.90;;;;;;5023052;28;20036;-86
2022/10/29 05:31:07;;;;;;;41.92;20.75;;;12.40;99.90;;;;;;5057210;28;20018;-84
2022/10/29 05:33:33;;;;;;;44.75;20.88;;;12.40;99.90;;;;;;5040269;28;20073;-83
2022/10/29 05:36:00;;;;;;;44.95;21.52;;;12.40;99.90;;;;;;5057101;28;20030;-82
2022/10/29 05:38:26;;;;;;;43.05;20.92;;;12.40;99.90;;;;;;5022637;28;20049;-86
2022/10/29 05:40:51;;;;;;;41.90;20.77;;;12.40;99.90;;;;;;5039421;28;20081;-85
2022/10/29 05:43:17;;;;;;;41.75;20.52;;;12.40;99.90;;;;;;5065089;23;20124;-79
2022/10/29 05:45:43;;;;;;;39.83;19.92;;;12.40;99.90;;;;;;5069925;28;20043;-78
2022/10/29 05:48:10;;;;;;;41.63;20.10;;;12.40;99.90;;;;;;5037197;28;20078;-78
2022/10/29 05:50:36;;;;;;;43.33;20.85;;;12.50;99.90;;;;;;5036284;28;20025;-79
2022/10/29 05:53:08;;;;;;;46.28;20.95;;;12.50;99.90;;;;;;5046084;28;20039;-78
2022/10/29 05:55:34;;;;;;;37.97;19.75;;;12.50;99.90;;;;;;5043977;28;20520;-78
2022/10/29 05:58:03;;;;;;;37.83;19.25;;;12.50;99.90;;;;;;5045023;28;20500;-80
2022/10/29 06:00:30;;;;;;;42.17;19.48;;;12.60;99.90;;;;;;5048925;28;20035;-80
2022/10/29 06:02:56;;;;;;;38.28;19.85;;;12.50;99.90;;;;;;5056428;28;20094;-79
2022/10/29 06:05:22;;;;;;;45.28;20.42;;;12.60;99.90;;;;;;5046106;28;20112;-79
2022/10/29 06:07:59;;;;;;;41.08;18.50;;;12.50;99.90;;;;;;5038868;28;20106;-80
2022/10/29 06:10:27;;;;;;;43.97;20.13;;;12.50;99.90;;;;;;5048149;28;20044;-79
2022/10/29 06:12:52;;;;;;;35.10;18.77;;;12.50;99.90;;;;;;5046347;28;20156;-81
2022/10/29 06:15:19;;;;;;;40.05;19.05;;;12.50;99.90;;;;;;5052876;28;20049;-78
2022/10/29 06:17:45;;;;;;;40.30;19.17;;;12.60;99.90;;;;;;5059073;28;20059;-78
2022/10/29 06:20:12;;;;;;;41.00;19.27;;;12.60;99.90;;;;;;5057373;28;20427;-80
2022/10/29 06:22:38;;;;;;;34.97;17.70;;;12.60;99.90;;;;;;5057191;28;20078;-79
2022/10/29 06:25:05;;;;;;;34.17;17.98;;;12.60;99.90;;;;;;5046490;28;20041;-79
2022/10/29 06:27:30;;;;;;;41.28;20.63;;;12.60;99.90;;;;;;5053732;28;20030;-77
2022/10/29 06:29:56;;;;;;;47.20;19.90;;;12.60;99.90;;;;;;5037918;28;20496;-80
2022/10/29 06:32:22;;;;;;;39.70;19.85;;;12.60;99.90;;;;;;5038696;28;20071;-79
2022/10/29 06:34:48;;;;;;;42.85;22.08;;;12.60;99.90;;;;;;5040882;28;20518;-78
2022/10/29 06:37:13;;;;;;;45.63;19.48;;;12.60;99.90;;;;;;5043461;28;20025;-79
2022/10/29 06:39:39;;;;;;;45.25;20.38;;;12.70;99.90;;;;;;5061086;28;20029;-79
2022/10/29 06:42:05;;;;;;;43.67;20.05;;;12.60;99.90;;;;;;5068465;28;20433;-78
2022/10/29 06:44:31;;;;;;;43.28;20.67;;;12.70;99.90;;;;;;5068783;28;20485;-78
2022/10/29 06:46:56;;;;;;;43.67;20.02;;;12.70;99.90;;;;;;5056521;28;20074;-79
2022/10/29 06:49:22;;;;;;;43.97;21.48;;;12.70;99.90;;;;;;5047175;28;20353;-78
2022/10/29 06:51:48;;;;;;;43.97;21.25;;;12.70;99.90;;;;;;5061877;28;20035;-79
2022/10/29 06:54:14;;;;;;;40.42;19.80;;;12.70;99.90;;;;;;5059546;28;20029;-80
2022/10/29 06:56:40;;;;;;;40.22;20.02;;;12.70;99.90;;;;;;5053739;28;20021;-79
2022/10/29 06:59:06;;;;;;;40.55;20.60;;;12.70;99.90;;;;;;5050238;28;20025;-79
2022/10/29 07:01:32;;;;;;;39.22;19.70;;;12.70;99.90;;;;;;5048006;28;20084;-79
2022/10/29 07:03:59;;;;;;;42.53;19.60;;;12.80;99.90;;;;;;5047570;28;20029;-78
2022/10/29 07:06:25;;;;;;;39.10;18.25;;;12.80;99.90;;;;;;5046959;28;20033;-78
2022/10/29 07:08:51;;;;;;;37.28;19.10;;;12.80;99.90;;;;;;5049192;28;20053;-79
2022/10/29 07:11:17;;;;;;;40.58;19.55;;;12.80;99.90;;;;;;5066272;28;20032;-78
2022/10/29 07:13:43;;;;;;;38.75;18.33;;;12.80;99.90;;;;;;5045368;28;20040;-80
2022/10/29 07:16:09;;;;;;;36.35;18.88;;;12.90;99.90;;;;;;5046257;28;20029;-80
2022/10/29 07:18:36;;;;;;;68.55;30.70;;;12.90;99.90;;;;;;5046048;28;20370;-79
2022/10/29 07:21:03;;;;;;;38.47;19.10;;;12.90;99.90;;;;;;5042095;28;20099;-79
2022/10/29 07:23:28;;;;;;;36.70;17.08;;;13.00;99.90;;;;;;5042722;28;20052;-79
2022/10/29 07:25:54;;;;;;;35.58;16.75;;;12.90;99.90;;;;;;5056401;28;20037;-78
2022/10/29 07:28:22;;;;;;;36.17;17.73;;;12.90;99.90;;;;;;5057739;28;20060;-78
2022/10/29 07:30:48;;;;;;;30.55;16.02;;;12.90;99.90;;;;;;5077991;28;20033;-76
2022/10/29 07:33:16;;;;;;;37.72;16.65;;;12.80;99.90;;;;;;5077215;28;20048;-78
2022/10/29 07:35:42;;;;;;;31.92;16.65;;;12.80;99.90;;;;;;5062691;28;20017;-78
2022/10/29 07:38:10;;;;;;;28.58;16.17;;;12.90;99.90;;;;;;5059913;28;20036;-78
2022/10/29 07:40:36;;;;;;;32.13;16.33;;;13.00;99.90;;;;;;5064450;28;20044;-79
2022/10/29 07:43:02;;;;;;;27.67;14.55;;;13.00;99.90;;;;;;5051851;28;20045;-78
2022/10/29 07:45:27;;;;;;;29.00;14.02;;;13.00;99.90;;;;;;5042330;28;20036;-78
2022/10/29 07:48:02;;;;;;;26.70;13.48;;;13.10;99.90;;;;;;5042919;28;20028;-78
2022/10/29 07:50:29;;;;;;;21.45;11.57;;;13.10;99.90;;;;;;5045472;28;20026;-79
2022/10/29 07:52:54;;;;;;;18.05;10.60;;;13.20;99.90;;;;;;5043509;28;20034;-80
2022/10/29 07:55:20;;;;;;;19.08;11.00;;;13.20;99.90;;;;;;5047255;28;20026;-78
2022/10/29 07:57:46;;;;;;;20.73;10.93;;;13.20;99.90;;;;;;5041440;28;20040;-79
2022/10/29 08:00:13;;;;;;;20.20;11.18;;;13.30;99.90;;;;;;5040705;28;20025;-79
2022/10/29 08:02:41;;;;;;;19.40;10.20;;;13.30;99.90;;;;;;5039323;28;20547;-83
2022/10/29 08:05:07;;;;;;;18.63;10.77;;;13.20;99.90;;;;;;5041419;28;20082;-79
2022/10/29 08:07:33;;;;;;;17.85;10.35;;;13.30;99.90;;;;;;5050372;28;20017;-78
2022/10/29 08:09:58;;;;;;;19.75;10.30;;;13.30;99.90;;;;;;5049910;28;20033;-80
2022/10/29 08:12:24;;;;;;;20.13;10.65;;;13.30;99.90;;;;;;5042224;28;20032;-80
2022/10/29 08:14:50;;;;;;;19.67;11.18;;;13.40;99.90;;;;;;5039222;28;20088;-77
2022/10/29 08:17:16;;;;;;;20.23;10.43;;;13.40;99.90;;;;;;5038609;28;20060;-78
2022/10/29 08:19:42;;;;;;;21.98;12.43;;;13.30;99.90;;;;;;5040440;28;20029;-79
2022/10/29 08:22:07;;;;;;;22.00;12.38;;;13.30;99.90;;;;;;5039211;28;20056;-81
2022/10/29 08:24:33;;;;;;;20.75;11.70;;;13.30;99.90;;;;;;5040295;28;20057;-80
2022/10/29 08:26:59;;;;;;;22.02;12.65;;;13.20;99.90;;;;;;5041689;28;20033;-78
2022/10/29 08:29:25;;;;;;;24.08;12.75;;;13.30;99.90;;;;;;5043092;28;20045;-79
2022/10/29 08:31:50;;;;;;;20.85;12.13;;;13.20;99.90;;;;;;5044488;28;20551;-78
2022/10/29 08:34:16;;;;;;;23.83;12.98;;;13.30;99.90;;;;;;5039982;28;20022;-80
2022/10/29 08:36:42;;;;;;;25.23;13.30;;;13.40;99.90;;;;;;5039420;28;20025;-80
2022/10/29 08:39:07;;;;;;;19.48;11.93;;;13.40;99.90;;;;;;5041614;28;20037;-78
2022/10/29 08:41:35;;;;;;;18.83;11.85;;;13.30;99.90;;;;;;5047654;28;20041;-81
2022/10/29 08:44:13;;;;;;;24.02;12.57;;;13.30;99.90;;;;;;5038387;28;20021;-77
2022/10/29 08:46:47;;;;;;;21.35;12.27;;;13.30;99.90;;;;;;5040486;28;20060;-80
2022/10/29 08:49:24;;;;;;;21.20;11.02;;;13.40;99.90;;;;;;5040950;28;20025;-78
2022/10/29 08:51:57;;;;;;;16.75;10.02;;;13.30;99.90;;;;;;5040095;28;20129;-79
2022/10/29 08:54:26;;;;;;;16.70;10.30;;;13.30;99.90;;;;;;5041237;28;20025;-79
2022/10/29 08:56:56;;;;;;;15.73;9.63;;;13.30;99.90;;;;;;5038576;28;20048;-79
2022/10/29 08:59:24;;;;;;;14.60;9.77;;;13.30;99.90;;;;;;5038167;28;20025;-80
2022/10/29 09:01:52;;;;;;;15.80;9.68;;;13.40;99.90;;;;;;5038155;28;20029;-79
2022/10/29 09:04:21;;;;;;;16.40;10.07;;;13.20;99.90;;;;;;5046237;28;20037;-79
2022/10/29 09:06:57;;;;;;;19.33;10.30;;;13.20;99.90;;;;;;5049640;28;20081;-78
2022/10/29 09:09:54;;;;;;;17.63;10.38;;;13.30;99.90;;;;;;5048620;28;20082;-78
2022/10/29 09:12:44;;;;;;;18.53;11.13;;;13.30;99.90;;;;;;5060309;28;20080;-77
2022/10/29 09:15:48;;;;;;;19.17;10.55;;;13.40;99.90;;;;;;5065968;28;20274;-78
2022/10/29 09:18:46;;;;;;;18.10;9.68;;;13.40;99.90;;;;;;5067468;28;20028;-78
2022/10/29 09:21:30;;;;;;;15.60;9.50;;;13.50;99.90;;;;;;5044220;28;20047;-79
2022/10/29 09:23:56;;;;;;;15.20;9.70;;;13.40;99.90;;;;;;5058844;28;20025;-79
2022/10/29 09:26:31;;;;;;;16.45;10.02;;;13.50;99.90;;;;;;5058392;28;20071;-77
2022/10/29 09:29:02;;;;;;;;;;;13.50;99.90;;;;;;5061928;28;20025;-80
2022/10/29 09:31:45;;;;;;;17.00;9.77;;;13.50;99.90;;;;;;5064603;28;19909;-79
2022/10/29 09:34:18;;;;;;;13.13;9.00;;;13.50;99.90;;;;;;5060299;28;20033;-80
2022/10/29 09:36:46;;;;;;;18.67;10.15;;;13.60;99.90;;;;;;5059991;28;20044;-78
2022/10/29 09:39:15;;;;;;;16.10;9.85;;;13.60;99.90;;;;;;5056390;28;20047;-79
2022/10/29 09:41:43;;;;;;;14.90;9.45;;;13.60;99.90;;;;;;5065424;28;20021;-79
2022/10/29 09:44:29;;;;;;;14.73;8.90;;;13.70;99.90;;;;;;5067089;28;20049;-79
2022/10/29 09:47:25;;;;;;;16.17;10.50;;;13.70;99.90;;;;;;5068983;28;20037;-77
2022/10/29 09:49:58;;;;;;;14.90;9.75;;;13.60;99.90;;;;;;5065426;28;20025;-77
2022/10/29 09:52:35;;;;;;;13.65;8.95;;;13.80;99.90;;;;;;5069723;28;20045;-77
2022/10/29 09:55:04;;;;;;;17.08;10.85;;;13.90;99.90;;;;;;5070038;28;20025;-79
2022/10/29 09:57:33;;;;;;;20.17;10.25;;;13.80;99.90;;;;;;5071282;28;20029;-78
2022/10/29 10:00:13;;;;;;;17.80;11.25;;;13.80;99.90;;;;;;5070475;28;20033;-80
2022/10/29 10:02:50;;;;;;;17.55;9.90;;;13.80;99.90;;;;;;5071507;28;20041;-79
2022/10/29 10:05:25;;;;;;;18.23;10.80;;;13.60;99.90;;;;;;5067969;28;20031;-78
2022/10/29 10:08:12;;;;;;;16.10;10.55;;;13.60;99.90;;;;;;5065719;28;20028;-76
2022/10/29 10:10:59;;;;;;;15.77;10.35;;;13.70;99.90;;;;;;5070616;28;20029;-79
2022/10/29 10:13:31;;;;;;;14.80;9.73;;;13.80;99.90;;;;;;5066990;28;20096;-78
2022/10/29 10:15:59;;;;;;;14.05;9.18;;;13.90;99.90;;;;;;5068894;28;20040;-78
2022/10/29 10:18:31;;;;;;;18.98;10.60;;;14.00;99.90;;;;;;5069237;28;20021;-78
2022/10/29 10:21:05;;;;;;;24.38;14.93;;;14.10;99.90;;;;;;5065575;28;20049;-78
2022/10/29 10:23:43;;;;;;;22.37;14.10;;;14.10;99.90;;;;;;5055124;28;20036;-77
2022/10/29 10:26:27;;;;;;;26.08;16.50;;;14.20;99.90;;;;;;5055661;28;20033;-78
2022/10/29 10:29:12;;;;;;;36.00;23.55;;;14.20;99.90;;;;;;5059219;28;20021;-79
2022/10/29 10:31:39;;;;;;;41.17;24.63;;;14.20;99.90;;;;;;5064002;28;20023;-80
2022/10/29 10:34:20;;;;;;;36.05;22.30;;;14.10;99.90;;;;;;5064432;28;20044;-79
2022/10/29 10:36:54;;;;;;;36.47;21.25;;;14.30;99.90;;;;;;5060812;28;20081;-81
2022/10/29 10:39:30;;;;;;;29.20;18.58;;;14.50;99.90;;;;;;5062953;28;20109;-80
2022/10/29 10:41:59;;;;;;;27.35;16.55;;;14.40;99.90;;;;;;5060073;28;20100;-78
2022/10/29 10:44:26;;;;;;;32.55;17.13;;;14.50;99.90;;;;;;5062414;28;20033;-78
2022/10/29 10:46:55;;;;;;;27.33;16.15;;;14.40;99.90;;;;;;5067973;28;20029;-78
2022/10/29 10:49:34;;;;;;;23.33;15.43;;;14.50;99.90;;;;;;5061265;28;20020;-77
2022/10/29 10:52:04;;;;;;;23.48;14.10;;;14.30;99.90;;;;;;5062082;28;20043;-77
2022/10/29 10:54:40;;;;;;;23.02;13.35;;;14.20;99.90;;;;;;5067759;28;20025;-78
2022/10/29 10:57:12;;;;;;;27.08;15.23;;;14.10;99.90;;;;;;5072348;28;20045;-77
2022/10/29 11:00:05;;;;;;;36.38;23.23;;;14.10;99.90;;;;;;5074371;28;20029;-77
2022/10/29 11:02:53;;;;;;;44.65;26.98;;;14.10;99.90;;;;;;5067052;28;20063;-79
2022/10/29 11:05:21;;;;;;;40.88;25.70;;;14.00;99.90;;;;;;5070208;28;20447;-80
2022/10/29 11:08:16;;;;;;;40.72;24.88;;;14.10;99.90;;;;;;5063331;28;20032;-79
2022/10/29 11:11:06;;;;;;;43.67;23.20;;;14.10;99.90;;;;;;5065203;28;20035;-78
2022/10/29 11:13:33;;;;;;;34.65;21.65;;;14.40;99.90;;;;;;5062058;28;20037;-80
2022/10/29 11:16:16;;;;;;;37.13;21.40;;;14.50;99.90;;;;;;5063356;28;20388;-79
2022/10/29 11:19:00;;;;;;;37.20;22.10;;;14.50;99.90;;;;;;5061343;28;20029;-78
2022/10/29 11:21:42;;;;;;;38.05;23.67;;;14.50;99.90;;;;;;5060055;28;20469;-79
2022/10/29 11:24:26;;;;;;;41.25;25.73;;;14.40;99.90;;;;;;5070256;28;20055;-78
2022/10/29 11:27:11;;;;;;;46.50;27.58;;;14.50;99.90;;;;;;5068075;28;20025;-77
2022/10/29 11:30:01;;;;;;;52.63;28.42;;;14.50;99.90;;;;;;5059676;28;20014;-79
2022/10/29 11:32:56;;;;;;;47.13;30.50;;;14.50;99.90;;;;;;5062360;28;20080;-77
2022/10/29 11:35:28;;;;;;;52.85;30.17;;;14.40;99.90;;;;;;5062012;28;20035;-79
2022/10/29 11:38:24;;;;;;;40.05;23.88;;;14.40;99.90;;;;;;5059675;28;20025;-79
2022/10/29 11:41:05;;;;;;;45.42;29.00;;;14.40;99.90;;;;;;5051968;28;20044;-79
2022/10/29 11:53:25;;;;;;;45.03;27.98;;;14.80;99.90;;;;;;5030230;28;20056;-88
2022/10/29 12:00:31;;;;;;;52.35;24.42;;;14.70;99.90;;;;;;5011934;28;20072;-89
2022/10/29 12:03:41;;;;;;;50.13;30.27;;;14.70;99.90;;;;;;5005541;28;20512;-88
2022/10/29 12:15:29;;;;;;;55.55;32.63;;;14.70;99.90;;;;;;5040004;28;20082;-86
2022/10/29 12:18:38;;;;;;;50.75;30.67;;;14.70;99.90;;;;;;4997404;28;20026;-86
2022/10/29 12:22:15;;;;;;;51.00;31.08;;;14.70;99.90;;;;;;5030933;28;20069;-88
2022/10/29 12:25:59;;;;;;;59.60;35.22;;;14.80;99.90;;;;;;5023736;28;20033;-88
2022/10/29 12:29:48;;;;;;;62.58;36.22;;;14.80;99.90;;;;;;5001579;28;20066;-88
2022/10/29 12:38:22;;;;;;;59.65;38.13;;;14.60;99.90;;;;;;3949484;26;20093;-87
2022/10/29 12:41:49;;;;;;;;;;;;;;;;;;;;;
2022/10/29 12:48:49;;;;;;;74.85;39.42;;;14.50;99.90;;;;;;4960584;28;20110;-89
2022/10/29 12:52:02;;;;;;;75.38;41.00;;;14.40;99.90;;;;;;5004947;28;20561;-88
2022/10/29 12:55:33;;;;;;;74.78;40.58;;;14.20;99.90;;;;;;5035882;28;20084;-86
2022/10/29 12:58:44;;;;;;;76.25;41.40;;;14.20;99.90;;;;;;5003982;28;20041;-87
2022/10/29 13:01:47;;;;;;;75.13;40.40;;;14.10;99.90;;;;;;5022868;28;20033;-87
2022/10/29 13:08:25;;;;;;;82.60;42.35;;;14.10;99.90;;;;;;5015816;28;20038;-88
2022/10/29 13:11:31;;;;;;;80.88;42.67;;;14.00;99.90;;;;;;5000734;28;20022;-89
2022/10/29 13:13:59;;;;;;;78.85;40.25;;;14.10;99.90;;;;;;5000121;28;20060;-89
2022/10/29 13:17:26;;;;;;;75.13;40.05;;;14.00;99.90;;;;;;5000602;28;20026;-88
2022/10/29 13:20:43;;;;;;;72.78;39.85;;;14.00;99.90;;;;;;4975090;28;20132;-88
2022/10/29 13:23:30;;;;;;;67.75;36.05;;;14.00;99.90;;;;;;5010449;28;20034;-88
2022/10/29 13:26:10;;;;;;;71.38;36.78;;;14.10;99.90;;;;;;5010991;28;20041;-88
2022/10/29 13:28:44;;;;;;;77.90;36.25;;;14.10;99.90;;;;;;4992602;28;20049;-88
2022/10/29 13:32:14;;;;;;;69.38;35.40;;;14.10;99.90;;;;;;4995213;28;20040;-87
2022/10/29 13:35:24;;;;;;;;;;;14.00;99.90;;;;;;4995200;28;20060;-89
2022/10/29 13:38:46;;;;;;;50.92;28.08;;;14.00;99.90;;;;;;5031858;28;19964;-87
2022/10/29 13:42:02;;;;;;;49.50;26.65;;;13.90;99.90;;;;;;5019286;28;20065;-89
2022/10/29 13:45:00;;;;;;;51.13;28.13;;;13.90;99.90;;;;;;5017393;28;20044;-88
2022/10/29 14:04:11;;;;;;;51.65;28.48;;;14.00;99.90;;;;;;4993047;28;20030;-87
2022/10/29 14:16:06;;;;;;;53.15;29.13;;;14.00;99.90;;;;;;5027497;28;20037;-88
2022/10/29 14:18:52;;;;;;;56.83;31.35;;;13.90;99.90;;;;;;4888123;29;20020;-86
2022/10/29 14:21:33;;;;;;;54.60;30.23;;;13.90;99.90;;;;;;4922965;28;20084;-85
2022/10/29 14:24:22;;;;;;;55.08;32.03;;;13.80;99.90;;;;;;5016235;28;20054;-88
2022/10/29 14:28:04;;;;;;;;;;;;;;;;;;;;;
2022/10/29 14:37:23;;;;;;;50.70;25.33;;;13.80;99.90;;;;;;5201575;23;20143;-88
2022/10/29 14:39:55;;;;;;;47.45;25.15;;;13.80;99.90;;;;;;5038638;28;20037;-88
2022/10/29 14:42:37;;;;;;;45.05;25.55;;;13.80;99.90;;;;;;5063951;28;20029;-88
2022/10/29 14:45:20;;;;;;;52.17;26.38;;;13.80;99.90;;;;;;5077058;28;20079;-89
2022/10/29 14:48:09;;;;;;;49.92;26.67;;;13.70;99.90;;;;;;5078206;28;20100;-87
2022/10/29 14:50:35;;;;;;;46.85;26.40;;;13.70;99.90;;;;;;5079504;28;20052;-85
2022/10/29 14:53:18;;;;;;;51.15;26.88;;;13.70;99.90;;;;;;5080459;28;20017;-86
2022/10/29 14:56:10;;;;;;;48.22;27.55;;;13.70;99.90;;;;;;5079646;28;20017;-86
2022/10/29 14:58:55;;;;;;;48.78;26.58;;;13.70;99.90;;;;;;5063663;28;20017;-86
2022/10/29 15:01:45;;;;;;;45.22;24.35;;;13.70;99.90;;;;;;5079395;28;20072;-86
2022/10/29 15:04:33;;;;;;;48.25;26.23;;;13.60;99.90;;;;;;5079129;28;20053;-86
2022/10/29 15:07:18;;;;;;;45.60;24.48;;;13.60;99.90;;;;;;5058730;28;20034;-85
2022/10/29 15:18:15;;;;;;;47.25;24.80;;;13.50;99.90;;;;;;4976233;28;20058;-86
2022/10/29 15:40:05;;;;;;;61.25;27.90;;;13.30;99.90;;;;;;4955068;28;20039;-86
2022/10/29 15:42:34;;;;;;;60.42;29.55;;;13.30;99.90;;;;;;5015459;28;20037;-84
2022/10/29 15:45:13;;;;;;;60.10;30.42;;;13.30;99.90;;;;;;4985655;28;20030;-85
2022/10/29 15:47:51;;;;;;;65.40;29.40;;;13.30;99.90;;;;;;5041540;28;20026;-85
2022/10/29 15:50:23;;;;;;;48.05;24.25;;;13.30;99.90;;;;;;5024981;28;20033;-86
2022/10/29 15:53:00;;;;;;;48.97;24.80;;;13.30;99.90;;;;;;5024814;28;20021;-86
2022/10/29 15:55:29;;;;;;;45.08;24.02;;;13.30;99.90;;;;;;5029151;28;20056;-85
2022/10/29 15:58:05;;;;;;;41.15;22.83;;;13.20;99.90;;;;;;5037426;28;20030;-88
2022/10/29 16:00:34;;;;;;;38.03;21.65;;;13.20;99.90;;;;;;5038718;28;20053;-86
2022/10/29 16:03:19;;;;;;;41.92;22.55;;;13.20;99.90;;;;;;5021203;28;20030;-85
2022/10/29 16:05:52;;;;;;;49.40;23.88;;;13.20;99.90;;;;;;5021640;28;20061;-86
2022/10/29 16:08:28;;;;;;;46.00;24.65;;;13.20;99.90;;;;;;5037599;28;20018;-86
2022/10/29 16:10:55;;;;;;;57.28;26.02;;;13.20;99.90;;;;;;5028428;28;20052;-86
2022/10/29 16:13:23;;;;;;;48.92;24.30;;;13.10;99.90;;;;;;5049918;28;20072;-87
2022/10/29 16:15:54;;;;;;;59.03;25.88;;;13.10;99.90;;;;;;5034377;28;20120;-88
2022/10/29 16:18:37;;;;;;;51.05;26.17;;;13.10;99.90;;;;;;5019728;28;20026;-86
2022/10/29 16:21:05;;;;;;;52.60;25.13;;;13.00;99.90;;;;;;5031100;28;20029;-87
2022/10/29 16:23:36;;;;;;;50.03;25.55;;;13.00;99.90;;;;;;5014852;28;20028;-88
2022/10/29 16:26:02;;;;;;;51.55;26.13;;;13.00;99.90;;;;;;5015436;28;20041;-86
2022/10/29 16:28:28;;;;;;;53.03;25.80;;;13.00;99.90;;;;;;5055985;28;20025;-86
2022/10/29 16:30:57;;;;;;;55.05;27.75;;;13.00;99.90;;;;;;5056488;28;20021;-87
2022/10/29 16:33:41;;;;;;;62.35;26.38;;;13.00;99.90;;;;;;5022407;28;20020;-88
2022/10/29 16:36:08;;;;;;;53.28;27.02;;;13.00;99.90;;;;;;5021656;28;20049;-86
2022/10/29 16:38:41;;;;;;;62.55;28.38;;;13.00;99.90;;;;;;5036528;28;20018;-86
2022/10/29 16:41:31;;;;;;;;;;;;;;;;;;;;;
2022/10/29 16:44:08;;;;;;;50.25;26.38;;;12.90;99.90;;;;;;5044905;28;20055;-86
2022/10/29 16:46:42;;;;;;;52.55;25.63;;;12.90;99.90;;;;;;5018919;28;20029;-86
2022/10/29 16:49:08;;;;;;;56.83;27.80;;;12.90;99.90;;;;;;5013622;28;20029;-87
2022/10/29 16:51:37;;;;;;;49.97;26.40;;;12.90;99.90;;;;;;5011925;28;20018;-88
2022/10/29 16:54:06;;;;;;;57.97;27.02;;;12.90;99.90;;;;;;5006359;28;20120;-86
2022/10/29 16:56:32;;;;;;;58.78;27.77;;;12.90;99.90;;;;;;5046614;28;20080;-87
2022/10/29 16:58:58;;;;;;;57.20;26.73;;;12.90;99.90;;;;;;5012324;28;20038;-88
2022/10/29 17:01:24;;;;;;;52.08;25.52;;;13.00;99.90;;;;;;5028992;28;20021;-86
2022/10/29 17:03:51;;;;;;;52.63;26.60;;;13.00;99.90;;;;;;5046064;28;20009;-87
2022/10/29 17:06:17;;;;;;;53.35;25.90;;;13.00;99.90;;;;;;5046668;28;20041;-86
2022/10/29 17:08:43;;;;;;;50.28;25.55;;;13.00;99.90;;;;;;5027847;28;20099;-86
2022/10/29 17:11:08;;;;;;;53.00;25.77;;;13.00;99.90;;;;;;5013174;28;20083;-86
2022/10/29 17:13:35;;;;;;;49.42;24.63;;;12.90;99.90;;;;;;5028041;28;20060;-88
2022/10/29 17:16:17;;;;;;;53.08;27.15;;;12.90;99.90;;;;;;5029705;28;20092;-88
2022/10/29 17:18:43;;;;;;;60.28;25.92;;;12.90;99.90;;;;;;5006677;28;20052;-88
2022/10/29 17:21:08;;;;;;;51.20;25.92;;;12.90;99.90;;;;;;5046786;28;20040;-87
2022/10/29 17:23:34;;;;;;;53.95;26.63;;;12.80;99.90;;;;;;5012372;28;20029;-87
2022/10/29 17:26:00;;;;;;;59.55;31.08;;;12.80;99.90;;;;;;5046365;28;20029;-86
2022/10/29 17:28:27;;;;;;;49.58;25.52;;;12.80;99.90;;;;;;5046366;28;20030;-87
2022/10/29 17:30:53;;;;;;;53.33;25.58;;;12.80;99.90;;;;;;5046434;28;20001;-87
2022/10/29 17:33:19;;;;;;;47.53;25.13;;;12.80;99.90;;;;;;5029885;28;20041;-86
2022/10/29 17:35:45;;;;;;;48.28;24.73;;;12.80;99.90;;;;;;5030803;28;20029;-84
2022/10/29 17:38:11;;;;;;;45.70;22.85;;;12.80;99.90;;;;;;5055631;28;20033;-84
2022/10/29 17:40:36;;;;;;;39.88;21.98;;;12.80;99.90;;;;;;5038993;28;20101;-85
2022/10/29 17:43:02;;;;;;;39.13;22.00;;;12.80;99.90;;;;;;5037898;28;20013;-87
2022/10/29 17:45:28;;;;;;;41.47;23.35;;;12.80;99.90;;;;;;5029409;23;20053;-80
2022/10/29 17:47:55;;;;;;;45.70;24.42;;;12.80;99.90;;;;;;5040880;28;20490;-80
2022/10/29 17:50:21;;;;;;;39.22;23.27;;;12.80;99.90;;;;;;5039362;28;20487;-80
2022/10/29 17:52:47;;;;;;;43.22;23.48;;;12.80;99.90;;;;;;5055889;28;20036;-79
2022/10/29 17:55:13;;;;;;;44.60;23.88;;;12.90;99.90;;;;;;5043709;28;20029;-80
2022/10/29 17:57:39;;;;;;;46.53;25.33;;;12.90;99.90;;;;;;5038030;28;20035;-79
2022/10/29 18:00:05;;;;;;;42.03;23.15;;;12.80;99.90;;;;;;5026736;28;20113;-80
2022/10/29 18:02:32;;;;;;;37.78;21.50;;;12.80;99.90;;;;;;5042087;28;20037;-79
2022/10/29 18:04:58;;;;;;;48.65;23.73;;;12.80;99.90;;;;;;5043568;28;20025;-80
2022/10/29 18:07:24;;;;;;;46.20;23.00;;;12.80;99.90;;;;;;5026880;28;20033;-80
2022/10/29 18:09:50;;;;;;;44.03;23.20;;;12.80;99.90;;;;;;5031277;28;20018;-79
2022/10/29 18:12:15;;;;;;;53.78;25.45;;;12.80;99.90;;;;;;5040126;28;20033;-80
2022/10/29 18:14:41;;;;;;;51.70;25.45;;;12.80;99.90;;;;;;5022954;28;20041;-80
2022/10/29 18:17:07;;;;;;;53.75;25.35;;;12.80;99.90;;;;;;5029110;28;20025;-81
2022/10/29 18:19:32;;;;;;;53.90;25.42;;;12.80;99.90;;;;;;5055098;28;20144;-80
2022/10/29 18:21:59;;;;;;;61.75;28.90;;;12.80;99.90;;;;;;5057422;28;20025;-79
2022/10/29 18:24:25;;;;;;;60.95;28.85;;;12.70;99.90;;;;;;5047865;28;20040;-79
2022/10/29 18:26:51;;;;;;;55.85;27.05;;;12.70;99.90;;;;;;5022643;28;20128;-82
2022/10/29 18:29:17;;;;;;;61.13;28.58;;;12.70;99.90;;;;;;5040485;28;20457;-80
2022/10/29 18:31:44;;;;;;;63.63;31.17;;;12.60;99.90;;;;;;5052265;28;20033;-78
2022/10/29 18:34:11;;;;;;;61.45;30.70;;;12.60;99.90;;;;;;5035145;28;20418;-80
2022/10/29 18:36:38;;;;;;;63.55;29.88;;;12.60;99.90;;;;;;5036859;28;20037;-80
2022/10/29 18:39:05;;;;;;;58.28;28.33;;;12.70;99.90;;;;;;5039885;28;20021;-80
2022/10/29 18:41:31;;;;;;;53.55;27.80;;;12.60;99.90;;;;;;5039490;28;20025;-79
2022/10/29 18:43:58;;;;;;;53.70;28.08;;;12.70;99.90;;;;;;5021864;28;20025;-80
2022/10/29 18:46:24;;;;;;;58.58;27.35;;;12.60;99.90;;;;;;5024187;28;20037;-79
2022/10/29 18:48:50;;;;;;;56.10;28.17;;;12.70;99.90;;;;;;5025206;28;20025;-78
2022/10/29 18:51:23;;;;;;;59.85;27.65;;;12.60;99.90;;;;;;5041519;28;20021;-80
2022/10/29 18:53:49;;;;;;;54.67;26.23;;;12.60;99.90;;;;;;5042157;28;20079;-79
2022/10/29 18:56:18;;;;;;;50.67;25.50;;;12.70;99.90;;;;;;5045993;28;20489;-78
2022/10/29 18:58:44;;;;;;;53.58;26.40;;;12.70;99.90;;;;;;5042554;28;20393;-81
2022/10/29 19:01:18;;;;;;;57.75;28.67;;;12.70;99.90;;;;;;5024480;28;20028;-80
2022/10/29 19:03:48;;;;;;;55.75;27.05;;;12.70;99.90;;;;;;5023021;28;20033;-78
2022/10/29 19:06:18;;;;;;;58.17;26.10;;;12.70;99.90;;;;;;5023665;28;20025;-80